Time;durP1;ratioP1;P1;durP2;ratioP2;P2;SDS_P1;SDS_P2;PMS_P1;PMS_P2;Temp;Humidity;BMP_temperature;BMP_pressure;BME280_temperature;BME280_humidity;BME280_pressure;Samples;Min_cycle;Max_cycle;Signal;HPM_P1;HPM_P2
2021/05/03 00:02:06;;;;;;;0.80;0.80;;;21.60;47.10;;;;;;5110289;28;20126;-40
2021/05/03 00:04:32;;;;;;;0.80;0.80;;;21.60;47.10;;;;;;5111638;28;20414;-41
2021/05/03 00:06:58;;;;;;;0.95;0.95;;;21.60;47.00;;;;;;5110506;28;20051;-40
2021/05/03 00:09:23;;;;;;;1.05;1.00;;;21.60;47.70;;;;;;5109253;28;20066;-39
2021/05/03 00:11:49;;;;;;;1.05;0.80;;;21.60;47.10;;;;;;5108188;28;20031;-40
2021/05/03 00:14:15;;;;;;;1.00;1.00;;;21.60;47.00;;;;;;5090601;28;20016;-41
2021/05/03 00:16:40;;;;;;;1.70;0.80;;;21.60;47.00;;;;;;5110105;28;20455;-40
2021/05/03 00:19:06;;;;;;;1.05;0.80;;;21.50;47.10;;;;;;5111647;28;20023;-40
2021/05/03 00:21:31;;;;;;;0.70;0.70;;;21.60;47.10;;;;;;5109535;28;20134;-38
2021/05/03 00:23:57;;;;;;;1.08;0.98;;;21.50;47.10;;;;;;5100918;28;20061;-39
2021/05/03 00:26:23;;;;;;;1.00;0.90;;;21.60;47.00;;;;;;5108368;28;20028;-41
2021/05/03 00:28:48;;;;;;;0.80;0.80;;;21.60;47.60;;;;;;5109144;28;20065;-40
2021/05/03 00:31:14;;;;;;;0.85;0.82;;;21.60;47.00;;;;;;5092600;28;20077;-40
2021/05/03 00:33:40;;;;;;;0.80;0.80;;;21.60;46.90;;;;;;5107784;28;20027;-37
2021/05/03 00:36:06;;;;;;;0.77;0.77;;;21.60;46.90;;;;;;5109692;28;20382;-38
2021/05/03 00:38:31;;;;;;;0.90;0.90;;;21.60;47.00;;;;;;5108658;28;20100;-40
2021/05/03 00:40:58;;;;;;;1.00;1.00;;;21.50;47.00;;;;;;5109668;28;20434;-40
2021/05/03 00:43:24;;;;;;;1.02;1.02;;;21.60;47.60;;;;;;5111885;28;20026;-40
2021/05/03 00:45:50;;;;;;;0.73;0.70;;;21.50;47.00;;;;;;5109193;28;20055;-39
2021/05/03 00:48:15;;;;;;;1.00;1.00;;;21.50;47.10;;;;;;5108479;28;20024;-40
2021/05/03 00:50:42;;;;;;;0.90;0.90;;;21.50;47.00;;;;;;5108126;28;20058;-39
2021/05/03 00:53:07;;;;;;;0.90;0.90;;;21.50;47.10;;;;;;5108414;28;20104;-40
2021/05/03 00:55:33;;;;;;;0.88;0.88;;;21.50;47.10;;;;;;5091324;28;20161;-40
2021/05/03 00:57:59;;;;;;;0.90;0.90;;;21.40;47.10;;;;;;5109516;28;20102;-41
2021/05/03 01:00:25;;;;;;;0.93;0.93;;;21.40;47.70;;;;;;5090856;28;20032;-38
2021/05/03 01:02:51;;;;;;;0.75;0.75;;;21.40;47.10;;;;;;5103368;28;20050;-40
2021/05/03 01:05:17;;;;;;;1.20;1.10;;;21.40;47.80;;;;;;5111997;28;20024;-38
2021/05/03 01:07:42;;;;;;;1.23;1.13;;;21.40;47.20;;;;;;5114074;28;20123;-38
2021/05/03 01:10:08;;;;;;;0.82;0.82;;;21.50;47.10;;;;;;5115650;28;20052;-40
2021/05/03 01:12:37;;;;;;;1.00;1.00;;;21.50;47.10;;;;;;5111114;28;20035;-40
2021/05/03 01:15:04;;;;;;;0.98;0.82;;;21.40;47.00;;;;;;5090064;28;20028;-40
2021/05/03 01:17:33;;;;;;;0.90;0.90;;;21.40;47.00;;;;;;5101031;28;20023;-39
2021/05/03 01:20:06;;;;;;;1.42;1.20;;;21.50;47.10;;;;;;5096750;28;20024;-38
2021/05/03 01:22:35;;;;;;;1.05;1.05;;;21.50;47.10;;;;;;5111330;28;20080;-40
2021/05/03 01:25:01;;;;;;;1.08;1.08;;;21.40;47.00;;;;;;5112784;28;20085;-38
2021/05/03 01:27:26;;;;;;;0.90;0.90;;;21.40;47.10;;;;;;5111260;28;20028;-41
2021/05/03 01:29:52;;;;;;;1.73;1.10;;;21.40;47.10;;;;;;5113250;28;20098;-40
2021/05/03 01:32:17;;;;;;;1.00;1.00;;;21.40;47.90;;;;;;5094557;28;20055;-44
2021/05/03 01:34:43;;;;;;;0.82;0.82;;;21.40;47.20;;;;;;5111718;28;20035;-41
2021/05/03 01:37:14;;;;;;;1.05;1.05;;;21.40;47.20;;;;;;5114749;28;20131;-40
2021/05/03 01:39:40;;;;;;;3.15;1.00;;;21.40;47.70;;;;;;5091132;28;20116;-41
2021/05/03 01:42:06;;;;;;;0.95;0.95;;;21.30;47.20;;;;;;5104145;28;20115;-40
2021/05/03 01:44:31;;;;;;;1.30;1.20;;;21.40;47.40;;;;;;5092382;28;20111;-39
2021/05/03 01:46:57;;;;;;;0.85;0.85;;;21.40;47.60;;;;;;5094344;28;20517;-40
2021/05/03 01:49:23;;;;;;;1.20;1.10;;;21.40;47.60;;;;;;5113692;28;20130;-37
2021/05/03 01:51:48;;;;;;;1.00;0.90;;;21.40;47.80;;;;;;5092449;28;20035;-38
2021/05/03 01:54:14;;;;;;;0.98;0.98;;;21.40;47.70;;;;;;5106411;28;20027;-38
2021/05/03 01:56:39;;;;;;;1.75;0.90;;;21.40;47.70;;;;;;5110856;28;20043;-36
2021/05/03 01:59:06;;;;;;;1.05;1.05;;;21.40;47.80;;;;;;5093282;28;20032;-39
2021/05/03 02:01:31;;;;;;;1.00;1.00;;;21.40;47.90;;;;;;5114153;28;20118;-37
2021/05/03 02:03:57;;;;;;;1.98;0.90;;;21.40;48.50;;;;;;5112693;28;20055;-37
2021/05/03 02:06:22;;;;;;;1.13;0.90;;;21.40;48.00;;;;;;5110336;28;20043;-38
2021/05/03 02:08:49;;;;;;;2.90;0.90;;;21.30;48.00;;;;;;5110412;28;20026;-39
2021/05/03 02:11:14;;;;;;;0.90;0.90;;;21.30;48.10;;;;;;5109917;28;20111;-36
2021/05/03 02:13:40;;;;;;;1.40;1.10;;;21.30;48.10;;;;;;5112684;28;20067;-38
2021/05/03 02:16:06;;;;;;;1.10;1.00;;;21.30;48.10;;;;;;5113472;28;20028;-40
2021/05/03 02:18:31;;;;;;;1.00;0.90;;;21.30;48.10;;;;;;5110714;28;20028;-41
2021/05/03 02:20:57;;;;;;;1.30;1.20;;;21.30;48.20;;;;;;5111233;28;20385;-37
2021/05/03 02:23:23;;;;;;;1.10;1.00;;;21.20;48.10;;;;;;5109865;28;20493;-37
2021/05/03 02:25:48;;;;;;;1.00;1.00;;;21.30;48.30;;;;;;5093866;28;20020;-37
2021/05/03 02:28:14;;;;;;;1.15;1.15;;;21.20;48.20;;;;;;5098318;28;20040;-39
2021/05/03 02:30:39;;;;;;;0.98;0.98;;;21.20;48.20;;;;;;5108356;28;20012;-36
2021/05/03 02:33:05;;;;;;;0.80;0.80;;;21.20;48.30;;;;;;5111892;28;20449;-38
2021/05/03 02:35:33;;;;;;;1.30;1.20;;;21.20;48.20;;;;;;5089271;28;20059;-39
2021/05/03 02:38:00;;;;;;;1.17;1.10;;;21.30;48.10;;;;;;5093842;28;20077;-38
2021/05/03 02:40:26;;;;;;;1.00;1.00;;;21.30;48.10;;;;;;5113566;28;20410;-38
2021/05/03 02:42:56;;;;;;;1.10;1.10;;;21.30;48.10;;;;;;5110892;28;20050;-36
2021/05/03 02:45:22;;;;;;;0.90;0.90;;;21.30;48.00;;;;;;5088464;28;20493;-40
2021/05/03 02:47:48;;;;;;;1.10;1.10;;;21.30;48.00;;;;;;5101727;28;20069;-39
2021/05/03 02:50:14;;;;;;;0.90;0.90;;;21.20;48.00;;;;;;5109464;28;20024;-38
2021/05/03 02:52:40;;;;;;;0.70;0.70;;;21.20;48.00;;;;;;5111357;28;20031;-39
2021/05/03 02:55:08;;;;;;;1.00;1.00;;;21.20;48.10;;;;;;5113304;28;20354;-38
2021/05/03 02:57:34;;;;;;;0.90;0.90;;;21.20;48.20;;;;;;5108211;28;20089;-38
2021/05/03 02:59:59;;;;;;;0.98;0.98;;;21.10;48.20;;;;;;5109425;28;20497;-38
2021/05/03 03:02:25;;;;;;;0.93;0.93;;;21.20;48.30;;;;;;5110056;28;20386;-38
2021/05/03 03:04:50;;;;;;;0.98;0.85;;;21.20;48.40;;;;;;5111314;28;22425;-39
2021/05/03 03:07:16;;;;;;;0.80;0.80;;;21.10;48.30;;;;;;5113400;28;20024;-38
2021/05/03 03:09:41;;;;;;;1.10;1.00;;;21.20;48.30;;;;;;5109036;28;20097;-37
2021/05/03 03:12:10;;;;;;;0.82;0.82;;;21.10;48.40;;;;;;5111000;28;20551;-38
2021/05/03 03:14:36;;;;;;;0.90;0.90;;;21.10;48.40;;;;;;5111101;28;20020;-37
2021/05/03 03:17:02;;;;;;;0.60;0.60;;;21.10;48.30;;;;;;5110838;28;20024;-37
2021/05/03 03:19:28;;;;;;;0.90;0.90;;;21.10;48.20;;;;;;5109206;28;20039;-37
2021/05/03 03:21:53;;;;;;;0.73;0.73;;;21.10;48.20;;;;;;5107775;28;20116;-38
2021/05/03 03:24:19;;;;;;;0.70;0.70;;;21.20;48.10;;;;;;5109046;28;20036;-38
2021/05/03 03:26:44;;;;;;;0.90;0.90;;;21.10;48.10;;;;;;5110574;28;20030;-38
2021/05/03 03:29:10;;;;;;;0.80;0.80;;;21.20;48.10;;;;;;5111189;28;20378;-38
2021/05/03 03:31:35;;;;;;;0.90;0.90;;;21.20;48.80;;;;;;5111288;28;20034;-39
2021/05/03 03:34:01;;;;;;;0.88;0.88;;;21.10;48.80;;;;;;5111531;28;20051;-38
2021/05/03 03:36:26;;;;;;;0.85;0.85;;;21.20;48.10;;;;;;5089992;28;20510;-36
2021/05/03 03:38:52;;;;;;;0.70;0.70;;;21.10;48.10;;;;;;5101133;28;20431;-37
2021/05/03 03:41:17;;;;;;;0.77;0.77;;;21.20;48.00;;;;;;5110134;28;20031;-37
2021/05/03 03:43:43;;;;;;;0.80;0.80;;;21.20;48.10;;;;;;5110968;28;20569;-40
2021/05/03 03:46:09;;;;;;;0.98;0.70;;;21.10;48.10;;;;;;5110443;28;20024;-36
2021/05/03 03:48:34;;;;;;;1.00;1.00;;;21.20;48.00;;;;;;5107778;28;20072;-39
2021/05/03 03:51:00;;;;;;;1.23;1.23;;;21.20;48.00;;;;;;5110011;28;20084;-42
2021/05/03 03:53:25;;;;;;;0.80;0.80;;;21.10;48.00;;;;;;5108933;28;20027;-39
2021/05/03 03:55:51;;;;;;;0.70;0.70;;;21.10;48.00;;;;;;5110444;28;20035;-39
2021/05/03 03:58:16;;;;;;;0.90;0.90;;;21.20;47.90;;;;;;5112788;28;20030;-38
2021/05/03 04:00:42;;;;;;;0.70;0.70;;;21.10;48.10;;;;;;5086753;28;20031;-38
2021/05/03 04:03:10;;;;;;;0.90;0.90;;;21.20;48.00;;;;;;5088339;28;20552;-41
2021/05/03 04:05:47;;;;;;;1.10;1.00;;;21.10;48.00;;;;;;5082196;28;20024;-38
2021/05/03 04:08:20;;;;;;;0.80;0.80;;;21.10;48.00;;;;;;5108018;28;20058;-38
2021/05/03 04:24:39;;;;;;;0.90;0.90;;;21.10;48.60;;;;;;5079600;28;20020;-39
2021/05/03 04:27:04;;;;;;;0.70;0.70;;;21.10;48.70;;;;;;5082997;28;20411;-38
2021/05/03 04:29:30;;;;;;;0.90;0.90;;;21.10;48.40;;;;;;5076985;28;20024;-38
2021/05/03 04:31:55;;;;;;;3.80;0.95;;;21.10;48.60;;;;;;5088621;28;20043;-39
2021/05/03 04:34:21;;;;;;;3.03;1.10;;;21.00;51.80;;;;;;5089506;28;20108;-38
2021/05/03 04:36:47;;;;;;;2.97;1.55;;;21.00;52.70;;;;;;5084066;28;20045;-39
2021/05/03 04:39:12;;;;;;;1.48;1.35;;;21.00;52.40;;;;;;5080304;28;20048;-39
2021/05/03 04:41:38;;;;;;;3.33;1.50;;;21.00;52.30;;;;;;5084143;28;20044;-38
2021/05/03 04:44:04;;;;;;;1.38;0.90;;;21.00;52.30;;;;;;5093854;28;20507;-41
2021/05/03 04:46:30;;;;;;;1.35;1.25;;;21.00;52.20;;;;;;5091586;28;20101;-40
2021/05/03 04:48:55;;;;;;;3.05;0.90;;;21.00;51.60;;;;;;5092199;28;20042;-41
2021/05/03 04:51:21;;;;;;;2.17;1.20;;;21.00;51.90;;;;;;5095300;28;20035;-41
2021/05/03 04:53:46;;;;;;;2.25;1.40;;;21.00;51.20;;;;;;5111631;28;20045;-41
2021/05/03 04:56:12;;;;;;;6.55;1.23;;;21.00;51.10;;;;;;5107376;28;20446;-40
2021/05/03 04:58:37;;;;;;;1.27;1.17;;;21.00;51.00;;;;;;5111254;28;20024;-41
2021/05/03 05:01:03;;;;;;;1.40;1.30;;;21.00;50.80;;;;;;5118740;27;20110;-42
2021/05/03 05:03:29;;;;;;;1.27;1.17;;;21.10;50.70;;;;;;5089691;28;20035;-42
2021/05/03 05:05:54;;;;;;;1.98;1.20;;;20.90;50.60;;;;;;5105930;28;20031;-41
2021/05/03 05:08:21;;;;;;;1.40;1.30;;;21.00;50.80;;;;;;5116991;27;20536;-40
2021/05/03 05:10:47;;;;;;;1.50;1.40;;;21.00;51.20;;;;;;5115960;27;20034;-41
2021/05/03 05:13:12;;;;;;;1.67;1.58;;;21.10;50.50;;;;;;5116151;28;20031;-41
2021/05/03 05:15:38;;;;;;;1.70;1.60;;;20.90;50.80;;;;;;5097348;28;20026;-40
2021/05/03 05:18:05;;;;;;;1.40;1.30;;;20.90;50.80;;;;;;5112077;28;20095;-40
2021/05/03 05:20:30;;;;;;;1.58;1.48;;;20.90;50.80;;;;;;5096234;28;20549;-40
2021/05/03 05:22:56;;;;;;;2.15;1.77;;;21.00;51.30;;;;;;4761236;28;10000687;-40
2021/05/03 05:25:21;;;;;;;1.65;1.50;;;21.00;50.60;;;;;;5095290;28;20027;-40
2021/05/03 05:27:47;;;;;;;2.05;1.60;;;20.90;51.40;;;;;;5114302;28;20051;-41
2021/05/03 05:30:13;;;;;;;1.60;1.50;;;21.00;50.70;;;;;;5113743;28;20034;-40
2021/05/03 05:32:39;;;;;;;1.63;1.52;;;20.90;50.80;;;;;;5110457;28;20532;-41
2021/05/03 05:35:05;;;;;;;3.05;1.65;;;21.00;50.60;;;;;;5114718;28;20024;-41
2021/05/03 05:37:31;;;;;;;5.63;2.20;;;21.00;50.40;;;;;;5103650;28;20055;-41
2021/05/03 05:39:56;;;;;;;2.13;1.90;;;21.00;50.20;;;;;;5114322;28;20027;-42
2021/05/03 05:42:22;;;;;;;3.40;1.70;;;21.10;50.00;;;;;;5114217;28;20133;-41
2021/05/03 05:44:47;;;;;;;2.88;1.90;;;21.00;50.00;;;;;;5112148;28;20031;-41
2021/05/03 05:47:13;;;;;;;1.98;1.77;;;20.90;50.00;;;;;;5113035;28;20493;-41
2021/05/03 05:49:38;;;;;;;2.00;1.80;;;21.00;50.00;;;;;;5096219;28;20054;-41
2021/05/03 05:52:04;;;;;;;2.22;1.80;;;20.90;49.90;;;;;;5094446;28;20036;-41
2021/05/03 05:54:30;;;;;;;2.08;1.70;;;20.90;49.80;;;;;;5111584;28;20034;-40
2021/05/03 05:56:56;;;;;;;1.95;1.77;;;20.90;50.40;;;;;;5113498;28;20769;-42
2021/05/03 05:59:22;;;;;;;1.80;1.70;;;20.90;49.70;;;;;;5112732;28;20118;-41
2021/05/03 06:01:48;;;;;;;2.65;2.30;;;20.80;49.90;;;;;;5111129;28;20107;-43
2021/05/03 06:04:14;;;;;;;2.25;2.13;;;20.80;50.10;;;;;;5114715;28;20114;-42
2021/05/03 06:06:39;;;;;;;3.95;2.20;;;20.80;50.10;;;;;;5107045;28;20571;-42
2021/05/03 06:09:05;;;;;;;2.50;2.30;;;20.70;50.30;;;;;;5103171;28;20011;-41
2021/05/03 06:11:30;;;;;;;2.67;2.00;;;20.70;50.20;;;;;;5108448;28;20091;-41
2021/05/03 06:13:56;;;;;;;2.17;1.73;;;20.70;50.10;;;;;;5090818;28;20023;-41
2021/05/03 06:16:22;;;;;;;2.05;1.90;;;20.70;50.20;;;;;;5109217;28;20832;-41
2021/05/03 06:18:47;;;;;;;2.70;2.50;;;20.60;50.50;;;;;;5090545;28;20028;-42
2021/05/03 06:21:13;;;;;;;2.15;2.05;;;20.60;50.50;;;;;;5084822;28;20402;-40
2021/05/03 06:23:39;;;;;;;2.20;2.10;;;20.70;50.20;;;;;;5110863;28;20513;-41
2021/05/03 06:26:04;;;;;;;2.20;2.00;;;20.70;50.20;;;;;;5102269;28;20020;-40
2021/05/03 06:28:30;;;;;;;2.65;2.40;;;20.70;50.10;;;;;;5111591;28;20389;-43
2021/05/03 06:30:57;;;;;;;2.65;2.20;;;20.80;49.80;;;;;;5111775;28;20084;-40
2021/05/03 06:33:23;;;;;;;4.05;2.00;;;20.80;49.90;;;;;;5100033;28;20042;-46
2021/05/03 06:35:49;;;;;;;2.60;2.00;;;20.70;49.80;;;;;;5064036;28;20023;-42
2021/05/03 06:38:15;;;;;;;4.28;2.03;;;20.70;49.50;;;;;;5082503;28;20394;-46
2021/05/03 06:40:40;;;;;;;5.18;2.00;;;20.80;49.30;;;;;;5084727;28;20529;-40
2021/05/03 06:43:06;;;;;;;1.77;1.67;;;20.80;49.20;;;;;;5086911;28;20055;-43
2021/05/03 06:45:33;;;;;;;3.03;2.17;;;20.90;49.10;;;;;;5082687;28;20611;-43
2021/05/03 06:47:59;;;;;;;1.70;1.60;;;20.90;49.00;;;;;;5084669;28;20036;-37
2021/05/03 06:50:24;;;;;;;1.92;1.60;;;20.90;49.70;;;;;;5089316;28;20024;-44
2021/05/03 06:52:51;;;;;;;2.08;1.92;;;20.90;49.60;;;;;;5080813;28;20040;-44
2021/05/03 06:55:16;;;;;;;3.63;2.28;;;20.90;49.10;;;;;;5087726;28;20028;-44
2021/05/03 06:57:42;;;;;;;3.75;2.00;;;20.80;49.10;;;;;;5085361;28;20050;-43
2021/05/03 07:00:09;;;;;;;1.90;1.80;;;20.90;50.20;;;;;;5071326;28;20056;-44
2021/05/03 07:02:35;;;;;;;2.20;1.92;;;20.80;50.00;;;;;;5062441;28;20032;-42
2021/05/03 07:05:01;;;;;;;2.40;2.08;;;20.60;51.00;;;;;;5087639;28;20031;-45
2021/05/03 07:07:26;;;;;;;2.35;1.73;;;20.40;50.60;;;;;;5091742;28;20453;-42
2021/05/03 07:09:52;;;;;;;1.92;1.83;;;20.30;51.00;;;;;;5069457;28;20072;-42
2021/05/03 07:12:22;;;;;;;4.72;1.80;;;20.30;50.90;;;;;;5087567;28;20039;-43
2021/05/03 07:14:48;;;;;;;2.72;1.60;;;20.20;51.00;;;;;;5089291;28;20032;-43
2021/05/03 07:17:14;;;;;;;2.97;1.75;;;20.20;51.10;;;;;;5089020;28;20109;-43
2021/05/03 07:19:39;;;;;;;1.60;1.50;;;20.20;51.00;;;;;;5069981;28;20031;-43
2021/05/03 07:22:06;;;;;;;1.77;1.67;;;20.20;51.20;;;;;;5085848;28;20510;-43
2021/05/03 07:24:31;;;;;;;2.28;1.73;;;20.30;50.70;;;;;;5086911;28;20939;-43
2021/05/03 07:26:57;;;;;;;1.80;1.70;;;20.20;50.80;;;;;;5088771;28;20043;-42
2021/05/03 07:29:23;;;;;;;1.73;1.50;;;20.20;51.10;;;;;;5068268;28;20687;-44
2021/05/03 07:31:48;;;;;;;1.75;1.60;;;20.30;50.90;;;;;;5070948;28;20039;-40
2021/05/03 07:34:15;;;;;;;1.50;1.40;;;20.30;50.80;;;;;;5088617;28;21389;-51
2021/05/03 07:36:41;;;;;;;1.90;1.80;;;20.30;50.70;;;;;;5087634;28;20789;-40
2021/05/03 07:39:06;;;;;;;2.53;1.20;;;20.30;50.80;;;;;;5089342;28;20067;-48
2021/05/03 07:41:33;;;;;;;1.73;1.63;;;20.20;50.50;;;;;;5088487;28;20118;-39
2021/05/03 07:43:58;;;;;;;3.28;1.65;;;20.30;50.70;;;;;;5088268;28;22940;-43
2021/05/03 07:46:25;;;;;;;3.17;1.70;;;20.30;50.70;;;;;;5088644;28;20024;-42
2021/05/03 07:48:55;;;;;;;1.58;1.48;;;20.30;50.70;;;;;;5086837;28;20036;-43
2021/05/03 07:51:20;;;;;;;1.40;1.35;;;20.30;50.60;;;;;;5086686;28;20032;-41
2021/05/03 07:53:46;;;;;;;2.17;1.52;;;20.30;50.40;;;;;;5088307;28;20047;-41
2021/05/03 07:56:14;;;;;;;1.50;1.40;;;20.40;50.50;;;;;;5089343;28;20502;-41
2021/05/03 07:58:41;;;;;;;1.58;1.48;;;20.40;50.20;;;;;;5087295;28;20096;-44
2021/05/03 08:01:07;;;;;;;1.88;1.60;;;20.50;50.50;;;;;;5088017;28;20885;-43
2021/05/03 08:03:36;;;;;;;2.00;1.40;;;20.60;50.20;;;;;;5080926;28;20050;-43
2021/05/03 08:06:03;;;;;;;1.50;1.40;;;20.60;49.70;;;;;;5081954;28;20085;-44
2021/05/03 08:08:28;;;;;;;1.70;1.60;;;20.60;49.80;;;;;;5081957;28;20383;-45
2021/05/03 08:10:54;;;;;;;1.80;1.70;;;20.60;49.80;;;;;;5087856;28;20039;-38
2021/05/03 08:13:19;;;;;;;2.05;1.50;;;20.60;49.80;;;;;;5091615;28;20066;-39
2021/05/03 08:15:47;;;;;;;1.20;1.10;;;20.60;49.70;;;;;;5087230;28;20032;-42
2021/05/03 08:18:13;;;;;;;1.40;1.30;;;20.60;49.70;;;;;;5080587;28;20031;-40
2021/05/03 08:20:38;;;;;;;1.40;1.30;;;20.60;49.70;;;;;;5085432;28;20044;-39
2021/05/03 08:23:09;;;;;;;1.15;1.10;;;20.70;49.60;;;;;;5089355;28;20060;-41
2021/05/03 08:25:35;;;;;;;1.20;1.10;;;20.70;49.60;;;;;;5087118;28;20901;-42
2021/05/03 08:28:00;;;;;;;1.13;1.13;;;20.70;50.00;;;;;;5089133;28;20046;-44
2021/05/03 08:30:26;;;;;;;1.40;1.30;;;20.70;49.50;;;;;;5089374;28;20085;-41
2021/05/03 08:32:51;;;;;;;0.90;0.90;;;20.70;49.40;;;;;;5069908;28;20030;-43
2021/05/03 08:35:17;;;;;;;1.30;1.20;;;20.80;49.30;;;;;;5084151;28;21190;-50
2021/05/03 08:37:42;;;;;;;0.95;0.95;;;20.80;49.20;;;;;;5069069;28;20135;-42
2021/05/03 08:40:09;;;;;;;1.15;1.05;;;20.80;49.10;;;;;;5092001;28;20456;-48
2021/05/03 08:42:34;;;;;;;1.02;1.02;;;20.80;49.20;;;;;;5088586;28;20078;-46
2021/05/03 08:45:00;;;;;;;1.25;1.20;;;20.80;49.70;;;;;;5087914;28;20131;-44
2021/05/03 08:47:29;;;;;;;1.10;1.10;;;20.80;49.10;;;;;;5069837;28;20032;-45
2021/05/03 08:49:57;;;;;;;0.88;0.88;;;20.90;49.10;;;;;;5088036;28;20111;-45
2021/05/03 08:52:28;;;;;;;1.05;1.05;;;21.00;49.10;;;;;;5052566;28;20582;-46
2021/05/03 08:54:54;;;;;;;1.73;1.30;;;21.00;50.40;;;;;;5084268;28;20084;-41
2021/05/03 08:57:20;;;;;;;1.15;1.15;;;21.10;49.70;;;;;;5082012;28;20086;-42
2021/05/03 08:59:45;;;;;;;1.10;1.00;;;21.30;48.90;;;;;;5084186;28;20481;-42
2021/05/03 09:02:13;;;;;;;1.33;1.20;;;21.40;49.00;;;;;;5087832;28;20036;-42
2021/05/03 09:04:39;;;;;;;1.02;0.95;;;21.50;49.20;;;;;;5068660;28;20028;-42
2021/05/03 09:07:04;;;;;;;1.30;1.20;;;21.50;49.30;;;;;;5084829;28;20120;-43
2021/05/03 09:09:34;;;;;;;1.52;1.42;;;21.40;49.60;;;;;;5086870;28;20040;-42
2021/05/03 09:12:01;;;;;;;1.38;1.20;;;21.50;49.20;;;;;;5071133;28;20027;-42
2021/05/03 09:14:27;;;;;;;0.98;0.98;;;21.50;49.30;;;;;;5086452;28;20796;-42
2021/05/03 09:16:53;;;;;;;1.20;1.10;;;21.60;50.20;;;;;;5049784;28;20032;-41
2021/05/03 09:19:21;;;;;;;1.15;1.02;;;21.60;49.20;;;;;;5067808;28;20036;-42
2021/05/03 09:21:47;;;;;;;1.27;1.10;;;21.70;49.00;;;;;;5090391;28;20032;-44
2021/05/03 09:24:19;;;;;;;0.80;0.80;;;21.70;49.10;;;;;;5087360;28;20093;-44
2021/05/03 09:27:05;;;;;;;1.20;1.10;;;21.80;48.80;;;;;;5088298;28;20031;-43
2021/05/03 09:29:39;;;;;;;1.00;0.90;;;21.90;48.80;;;;;;5089835;28;20028;-45
2021/05/03 09:32:12;;;;;;;0.98;0.90;;;21.90;48.60;;;;;;5074396;28;20900;-40
2021/05/03 09:34:45;;;;;;;1.00;1.00;;;22.00;48.60;;;;;;5086543;28;20529;-46
2021/05/03 09:37:17;;;;;;;1.20;0.80;;;22.10;48.20;;;;;;5092044;28;20043;-46
2021/05/03 09:39:44;;;;;;;1.00;0.90;;;22.20;48.00;;;;;;5090039;28;20061;-42
2021/05/03 09:42:10;;;;;;;1.05;1.05;;;22.20;47.70;;;;;;5093418;28;20802;-44
2021/05/03 09:44:36;;;;;;;1.30;1.20;;;22.20;48.40;;;;;;5086844;28;20051;-47
2021/05/03 09:47:01;;;;;;;1.52;1.10;;;22.20;48.00;;;;;;5089796;28;20032;-46
2021/05/03 09:49:27;;;;;;;0.85;0.80;;;22.20;47.80;;;;;;5091485;28;20040;-44
2021/05/03 09:51:53;;;;;;;1.10;0.80;;;22.20;47.90;;;;;;5070367;28;20413;-44
2021/05/03 09:54:26;;;;;;;1.10;0.90;;;22.30;47.70;;;;;;5088988;28;20077;-45
2021/05/03 09:57:04;;;;;;;2.00;1.15;;;22.30;47.50;;;;;;5089552;28;20089;-47
2021/05/03 09:59:44;;;;;;;2.15;0.98;;;22.30;47.30;;;;;;5089368;28;20047;-48
2021/05/03 10:02:24;;;;;;;0.90;0.90;;;22.30;47.10;;;;;;5090225;28;20046;-46
2021/05/03 10:04:59;;;;;;;1.20;0.90;;;22.30;47.00;;;;;;5090150;28;20187;-44
2021/05/03 10:07:26;;;;;;;1.58;1.00;;;22.20;47.00;;;;;;5088904;28;20035;-45
2021/05/03 10:10:37;;;;;;;0.90;0.90;;;22.30;47.00;;;;;;5088301;28;20027;-47
2021/05/03 10:12:41;;;;;;;1.00;1.00;;;22.20;47.50;;;;;;5066013;28;20071;-43
2021/05/03 10:15:09;;;;;;;1.35;1.10;;;22.20;47.30;;;;;;5070984;28;20507;-43
2021/05/03 10:17:38;;;;;;;0.80;0.80;;;22.20;46.80;;;;;;5088596;28;20115;-44
2021/05/03 10:20:05;;;;;;;1.20;1.10;;;22.30;46.80;;;;;;5092941;28;20082;-44
2021/05/03 10:22:31;;;;;;;1.63;1.10;;;22.30;46.80;;;;;;5067156;28;20127;-44
2021/05/03 10:24:58;;;;;;;0.88;0.75;;;22.20;47.50;;;;;;5088211;28;20035;-43
2021/05/03 10:27:25;;;;;;;1.05;0.90;;;22.10;47.70;;;;;;5068503;28;20028;-38
2021/05/03 10:30:12;;;;;;;2.63;1.27;;;22.00;47.90;;;;;;5091341;28;20056;-44
2021/05/03 10:32:38;;;;;;;4.57;1.00;;;22.00;47.60;;;;;;5087180;28;20036;-42
2021/05/03 10:35:05;;;;;;;3.42;1.00;;;22.20;47.30;;;;;;5088922;28;20028;-41
2021/05/03 10:37:31;;;;;;;1.40;0.90;;;22.20;47.50;;;;;;5091029;28;20228;-45
2021/05/03 10:39:58;;;;;;;2.10;1.02;;;22.20;47.60;;;;;;5090339;28;20486;-39
2021/05/03 10:42:23;;;;;;;1.85;1.20;;;22.30;47.70;;;;;;5088624;28;20132;-42
2021/05/03 10:45:04;;;;;;;0.70;0.70;;;22.30;47.70;;;;;;5090080;28;20031;-43
2021/05/03 10:47:37;;;;;;;2.25;1.02;;;22.40;47.70;;;;;;5086194;28;20132;-50
2021/05/03 10:50:05;;;;;;;1.17;0.88;;;22.30;47.80;;;;;;5074138;28;20038;-46
2021/05/03 10:52:35;;;;;;;2.17;1.10;;;22.30;48.70;;;;;;5070837;28;20155;-45
2021/05/03 10:55:01;;;;;;;1.83;1.13;;;22.20;49.30;;;;;;5087691;28;20028;-43
2021/05/03 10:57:26;;;;;;;2.25;1.17;;;22.10;48.60;;;;;;5087238;28;20065;-42
2021/05/03 10:59:56;;;;;;;6.50;1.20;;;22.20;49.30;;;;;;5088399;28;20038;-41
2021/05/03 11:02:23;;;;;;;3.45;1.20;;;22.20;49.20;;;;;;5088063;28;20044;-43
2021/05/03 11:05:08;;;;;;;1.63;1.00;;;22.40;48.60;;;;;;5088556;28;20024;-42
2021/05/03 11:07:34;;;;;;;1.40;1.00;;;22.30;49.20;;;;;;5088011;28;20061;-41
2021/05/03 11:09:59;;;;;;;1.88;0.80;;;22.40;48.80;;;;;;5069839;28;20924;-42
2021/05/03 11:12:26;;;;;;;1.83;1.20;;;22.40;49.10;;;;;;5089071;28;20086;-42
2021/05/03 11:15:08;;;;;;;3.10;0.90;;;22.50;48.60;;;;;;5086932;28;20543;-43
2021/05/03 11:17:34;;;;;;;1.10;1.00;;;22.40;49.00;;;;;;5100000;28;20040;-43
2021/05/03 11:20:11;;;;;;;2.05;1.08;;;22.30;49.30;;;;;;5082228;28;20050;-42
2021/05/03 11:22:49;;;;;;;1.98;0.70;;;22.40;49.10;;;;;;5089505;28;20040;-42
2021/05/03 11:25:23;;;;;;;1.00;0.80;;;22.30;49.10;;;;;;5089324;28;20113;-42
2021/05/03 11:30:36;;;;;;;3.00;0.90;;;22.30;49.10;;;;;;5097910;28;20047;-42
2021/05/03 11:33:06;;;;;;;2.45;0.80;;;22.20;49.20;;;;;;5107856;28;20048;-42
2021/05/03 11:45:17;;;;;;;2.17;1.05;;;22.00;49.40;;;;;;5107581;28;20421;-42
2021/05/03 11:47:42;;;;;;;2.45;1.05;;;22.00;50.00;;;;;;4736726;28;9999970;-43
2021/05/03 11:50:09;;;;;;;1.08;0.85;;;21.90;49.40;;;;;;5084102;28;20047;-42
2021/05/03 11:52:36;;;;;;;0.95;0.70;;;22.10;49.10;;;;;;5106567;28;20039;-43
2021/05/03 11:55:05;;;;;;;0.80;0.80;;;22.10;48.70;;;;;;5105742;28;20047;-33
2021/05/03 11:57:32;;;;;;;1.65;0.70;;;22.20;48.60;;;;;;5091120;28;20059;-39
2021/05/03 12:00:01;;;;;;;0.60;0.60;;;22.20;48.50;;;;;;5085907;28;20043;-44
2021/05/03 12:02:27;;;;;;;0.70;0.70;;;22.20;48.40;;;;;;5103897;28;20078;-43
2021/05/03 12:04:53;;;;;;;1.05;0.77;;;22.30;48.40;;;;;;5104501;28;24496;-44
2021/05/03 12:07:23;;;;;;;0.85;0.70;;;22.30;48.30;;;;;;5105040;28;20556;-44
2021/05/03 12:10:01;;;;;;;0.77;0.63;;;22.30;48.40;;;;;;5103481;28;20055;-43
2021/05/03 12:12:34;;;;;;;1.42;0.90;;;22.30;48.30;;;;;;5103642;28;20154;-42
2021/05/03 12:15:00;;;;;;;2.28;0.82;;;22.40;48.00;;;;;;5103777;28;20039;-42
2021/05/03 12:17:28;;;;;;;0.88;0.70;;;22.40;48.00;;;;;;5102439;28;20047;-42
2021/05/03 12:20:14;;;;;;;1.05;0.88;;;22.40;48.00;;;;;;5104628;28;20067;-43
2021/05/03 12:22:53;;;;;;;0.77;0.77;;;22.30;48.30;;;;;;5102136;28;20055;-42
2021/05/03 12:25:19;;;;;;;1.00;0.90;;;22.30;48.20;;;;;;5103741;28;20147;-44
2021/05/03 12:27:44;;;;;;;1.33;0.70;;;22.30;48.20;;;;;;5103276;28;20122;-43
2021/05/03 12:30:10;;;;;;;1.77;0.80;;;22.40;48.20;;;;;;5107797;28;20039;-43
2021/05/03 12:32:39;;;;;;;0.75;0.65;;;22.40;48.00;;;;;;5105961;28;20036;-41
2021/05/03 12:35:12;;;;;;;1.02;0.50;;;22.40;48.30;;;;;;5089841;28;20039;-43
2021/05/03 12:37:38;;;;;;;1.90;0.70;;;22.40;48.90;;;;;;5108710;28;20135;-41
2021/05/03 12:40:13;;;;;;;0.80;0.68;;;22.40;48.40;;;;;;5109201;28;20528;-41
2021/05/03 12:42:52;;;;;;;0.70;0.60;;;22.30;48.30;;;;;;5107439;28;20391;-42
2021/05/03 12:48:11;;;;;;;1.00;0.77;;;22.20;48.80;;;;;;5105957;28;20028;-42
2021/05/03 12:51:21;;;;;;;1.02;0.75;;;22.10;48.70;;;;;;5107611;28;20054;-42
2021/05/03 12:54:15;;;;;;;0.60;0.60;;;22.10;48.80;;;;;;5106209;28;20558;-33
2021/05/03 12:56:55;;;;;;;0.70;0.60;;;22.10;48.80;;;;;;5110919;28;20043;-41
2021/05/03 12:59:27;;;;;;;0.73;0.70;;;22.10;49.30;;;;;;5112315;28;20043;-43
2021/05/03 13:05:27;;;;;;;1.23;0.60;;;22.10;48.80;;;;;;5030134;28;20037;-43
2021/05/03 13:10:44;;;;;;;1.17;0.55;;;22.20;48.60;;;;;;5031221;28;20041;-42
2021/05/03 13:30:00;;;;;;;0.50;0.50;;;22.40;48.20;;;;;;5029028;28;20036;-43
2021/05/03 13:32:27;;;;;;;1.48;0.60;;;22.40;48.40;;;;;;5029110;28;20079;-33
2021/05/03 13:34:53;;;;;;;0.45;0.45;;;22.30;48.30;;;;;;5029603;28;20045;-43
2021/05/03 13:37:19;;;;;;;0.55;0.55;;;22.40;48.20;;;;;;5113068;28;20052;-42
2021/05/03 13:39:45;;;;;;;0.40;0.40;;;22.40;48.00;;;;;;5110510;28;20040;-43